createdAt,value
2019-05-18T00:00:01.841Z,9.75
2019-05-18T00:01:03.257Z,9.68
2019-05-18T00:02:01.820Z,9.67
2019-05-18T00:03:01.839Z,9.66
2019-05-18T00:04:01.801Z,9.61
2019-05-18T00:05:01.792Z,9.58
2019-05-18T00:06:01.779Z,9.58
2019-05-18T00:07:01.781Z,9.58
2019-05-18T00:08:01.766Z,9.53
2019-05-18T00:09:01.742Z,9.53
2019-05-18T00:10:01.744Z,9.49
2019-05-18T00:11:01.751Z,9.46
2019-05-18T00:12:01.699Z,9.45
2019-05-18T00:13:01.691Z,9.43
2019-05-18T00:14:01.703Z,9.43
2019-05-18T00:15:01.733Z,9.45
2019-05-18T00:16:01.660Z,9.43
2019-05-18T00:17:01.649Z,9.42
2019-05-18T00:18:01.653Z,9.42
2019-05-18T00:19:01.648Z,9.39
2019-05-18T00:20:01.622Z,9.39
2019-05-18T00:21:01.634Z,9.39
2019-05-18T00:22:01.599Z,9.38
2019-05-18T00:23:01.622Z,9.35
2019-05-18T00:24:01.594Z,9.39
2019-05-18T00:25:01.587Z,9.39
2019-05-18T00:26:01.549Z,9.38
2019-05-18T00:27:01.559Z,9.34
2019-05-18T00:28:01.578Z,9.34
2019-05-18T00:29:01.529Z,9.32
2019-05-18T00:30:01.521Z,9.30
2019-05-18T00:31:01.522Z,9.30
2019-05-18T00:32:01.493Z,9.28
2019-05-18T00:33:01.478Z,9.27
2019-05-18T00:34:01.481Z,9.25
2019-05-18T00:35:01.449Z,9.24
2019-05-18T00:36:01.449Z,9.23
2019-05-18T00:37:01.429Z,9.21
2019-05-18T00:38:01.439Z,9.20
2019-05-18T00:39:01.420Z,9.20
2019-05-18T00:40:01.413Z,9.16
2019-05-18T00:41:01.400Z,9.13
2019-05-18T00:42:01.419Z,9.13
2019-05-18T00:43:01.368Z,9.10
2019-05-18T00:44:01.358Z,9.09
2019-05-18T00:45:01.351Z,9.09
2019-05-18T00:46:01.342Z,9.04
2019-05-18T00:47:01.328Z,9.02
2019-05-18T00:48:01.299Z,9.01
2019-05-18T00:49:01.309Z,8.97
2019-05-18T00:50:01.320Z,8.94
2019-05-18T00:51:01.279Z,8.96
2019-05-18T00:52:01.280Z,8.96
2019-05-18T00:53:01.282Z,8.96
2019-05-18T00:54:01.258Z,8.94
2019-05-18T00:55:01.254Z,8.93
2019-05-18T00:56:01.230Z,8.93
2019-05-18T00:57:01.211Z,8.90
2019-05-18T00:58:01.492Z,8.86
2019-05-18T00:59:02.001Z,8.84
2019-05-18T01:00:02.090Z,8.84
2019-05-18T01:01:02.378Z,8.84
2019-05-18T01:02:02.992Z,8.86
2019-05-18T01:03:02.188Z,8.84
2019-05-18T01:04:01.406Z,8.87
2019-05-18T01:05:02.251Z,8.83
2019-05-18T01:06:01.119Z,8.83
2019-05-18T01:07:01.098Z,8.83
2019-05-18T01:08:01.087Z,8.81
2019-05-18T01:09:01.134Z,8.79
2019-05-18T01:10:01.060Z,8.79
2019-05-18T01:11:01.058Z,8.78
2019-05-18T01:12:01.051Z,8.76
2019-05-18T01:13:01.040Z,8.76
2019-05-18T01:14:01.034Z,8.78
2019-05-18T01:15:02.090Z,8.76
2019-05-18T01:16:02.635Z,8.76
2019-05-18T01:17:02.543Z,8.75
2019-05-18T01:18:02.383Z,8.71
2019-05-18T01:19:02.450Z,8.68
2019-05-18T01:20:02.449Z,8.65
2019-05-18T01:21:01.436Z,8.66
2019-05-18T01:22:01.929Z,8.66
2019-05-18T01:23:00.915Z,8.65
2019-05-18T01:24:00.935Z,8.63
2019-05-18T01:25:00.887Z,8.63
2019-05-18T01:26:00.901Z,8.62
2019-05-18T01:27:00.889Z,8.62
2019-05-18T01:28:00.871Z,8.62
2019-05-18T01:29:00.857Z,8.60
2019-05-18T01:30:00.836Z,8.57
2019-05-18T01:31:00.852Z,8.57
2019-05-18T01:32:00.827Z,8.54
2019-05-18T01:33:00.806Z,8.54
2019-05-18T01:34:00.846Z,8.53
2019-05-18T01:35:00.802Z,8.51
2019-05-18T01:36:00.777Z,8.51
2019-05-18T01:37:00.769Z,8.53
2019-05-18T01:38:00.750Z,8.50
2019-05-18T01:39:00.737Z,8.50
2019-05-18T01:40:00.741Z,8.48
2019-05-18T01:41:00.729Z,8.47
2019-05-18T01:42:00.741Z,8.44
2019-05-18T01:43:00.696Z,8.45
2019-05-18T01:44:00.679Z,8.44
2019-05-18T01:45:15.431Z,8.45
2019-05-18T01:46:01.675Z,8.44
2019-05-18T01:47:00.658Z,8.40
2019-05-18T01:48:12.713Z,8.40
2019-05-18T01:49:01.627Z,8.37
2019-05-18T01:50:00.616Z,8.35
2019-05-18T01:51:00.605Z,8.32
2019-05-18T01:52:00.596Z,8.32
2019-05-18T01:53:00.588Z,8.29
2019-05-18T01:54:00.615Z,8.28
2019-05-18T01:55:00.566Z,8.26
2019-05-18T01:56:00.559Z,8.26
2019-05-18T01:57:00.686Z,8.25
2019-05-18T01:58:00.536Z,8.21
2019-05-18T01:59:00.529Z,8.18
2019-05-18T02:00:00.546Z,8.18
2019-05-18T02:01:00.516Z,8.18
2019-05-18T02:02:00.506Z,8.14
2019-05-18T02:03:00.499Z,8.12
2019-05-18T02:04:00.466Z,8.08
2019-05-18T02:05:00.619Z,8.07
2019-05-18T02:06:00.446Z,8.03
2019-05-18T02:07:00.436Z,8.04
2019-05-18T02:08:00.425Z,8.03
2019-05-18T02:09:00.416Z,8.03
2019-05-18T02:10:00.435Z,8.04
2019-05-18T02:11:00.394Z,8.04
2019-05-18T02:12:00.376Z,8.07
2019-05-18T02:13:00.380Z,8.10
2019-05-18T02:14:00.355Z,8.08
2019-05-18T02:15:00.346Z,8.11
2019-05-18T02:16:00.347Z,8.11
2019-05-18T02:17:00.328Z,8.11
2019-05-18T02:18:00.323Z,8.11
2019-05-18T02:19:00.314Z,8.08
2019-05-18T02:20:00.295Z,8.04
2019-05-18T02:21:00.309Z,8.07
2019-05-18T02:22:00.265Z,8.04
2019-05-18T02:23:01.205Z,8.04
2019-05-18T02:24:00.285Z,8.07
2019-05-18T02:25:00.246Z,8.03
2019-05-18T02:26:00.226Z,8.03
2019-05-18T02:27:00.215Z,8.00
2019-05-18T02:28:00.206Z,7.99
2019-05-18T02:29:00.195Z,7.94
2019-05-18T02:30:00.199Z,7.92
2019-05-18T02:31:00.185Z,7.92
2019-05-18T02:32:00.168Z,7.89
2019-05-18T02:33:00.145Z,7.89
2019-05-18T02:34:00.177Z,7.87
2019-05-18T02:35:00.148Z,7.89
2019-05-18T02:36:00.141Z,7.87
2019-05-18T02:37:00.125Z,7.87
2019-05-18T02:38:00.104Z,7.87
2019-05-18T02:39:00.094Z,7.85
2019-05-18T02:40:00.087Z,7.87
2019-05-18T02:41:00.113Z,7.85
2019-05-18T02:42:00.055Z,7.84
2019-05-18T02:43:00.044Z,7.81
2019-05-18T02:44:00.048Z,7.79
2019-05-18T02:45:00.013Z,7.77
2019-05-18T02:46:00.014Z,7.77
2019-05-18T02:47:00.024Z,7.79
2019-05-18T02:47:59.986Z,7.79
2019-05-18T02:48:59.985Z,7.77
2019-05-18T02:49:59.969Z,7.77
2019-05-18T02:50:59.969Z,7.77
2019-05-18T02:51:59.959Z,7.77
2019-05-18T02:52:59.946Z,7.74
2019-05-18T02:53:59.935Z,7.71
2019-05-18T02:55:00.595Z,7.67
2019-05-18T02:56:02.287Z,7.66
2019-05-18T02:56:59.922Z,7.66
2019-05-18T02:57:59.915Z,7.66
2019-05-18T02:58:59.883Z,7.66
2019-05-18T03:00:00.575Z,7.66
2019-05-18T03:00:59.854Z,7.67
2019-05-18T03:01:59.858Z,7.66
2019-05-18T03:02:59.825Z,7.66
2019-05-18T03:03:59.831Z,7.66
2019-05-18T03:04:59.803Z,7.63
2019-05-18T03:05:59.810Z,7.60
2019-05-18T03:06:59.782Z,7.59
2019-05-18T03:07:59.796Z,7.56
2019-05-18T03:08:59.776Z,7.55
2019-05-18T03:09:59.758Z,7.52
2019-05-18T03:10:59.751Z,7.50
2019-05-18T03:11:59.724Z,7.47
2019-05-18T03:12:59.726Z,7.45
2019-05-18T03:13:59.712Z,7.45
2019-05-18T03:14:59.704Z,7.44
2019-05-18T03:15:59.685Z,7.47
2019-05-18T03:16:59.674Z,7.47
2019-05-18T03:17:59.685Z,7.45
2019-05-18T03:19:08.339Z,7.45
2019-05-18T03:20:00.642Z,7.47
2019-05-18T03:20:59.633Z,7.47
2019-05-18T03:22:01.019Z,7.47
2019-05-18T03:22:59.639Z,7.47
2019-05-18T03:23:59.614Z,7.47
2019-05-18T03:24:59.583Z,7.47
2019-05-18T03:25:59.595Z,7.45
2019-05-18T03:26:59.563Z,7.41
2019-05-18T03:27:59.574Z,7.42
2019-05-18T03:28:59.849Z,7.41
2019-05-18T03:29:59.542Z,7.42
2019-05-18T03:30:59.522Z,7.42
2019-05-18T03:31:59.512Z,7.44
2019-05-18T03:32:59.516Z,7.44
2019-05-18T03:33:59.502Z,7.42
2019-05-18T03:34:59.492Z,7.42
2019-05-18T03:35:59.467Z,7.41
2019-05-18T03:36:59.467Z,7.38
2019-05-18T03:37:59.473Z,7.35
2019-05-18T03:38:59.443Z,7.34
2019-05-18T03:39:59.724Z,7.34
2019-05-18T03:40:59.435Z,7.35
2019-05-18T03:41:59.415Z,7.38
2019-05-18T03:43:00.649Z,7.38
2019-05-18T03:43:59.399Z,7.44
2019-05-18T03:44:59.371Z,7.42
2019-05-18T03:45:59.362Z,7.42
2019-05-18T03:46:59.351Z,7.42
2019-05-18T03:47:59.362Z,7.41
2019-05-18T03:48:59.353Z,7.42
2019-05-18T03:49:59.311Z,7.41
2019-05-18T03:50:59.335Z,7.41
2019-05-18T03:51:59.304Z,7.41
2019-05-18T03:52:59.282Z,7.40
2019-05-18T03:53:59.282Z,7.41
2019-05-18T03:54:59.271Z,7.42
2019-05-18T03:55:59.293Z,7.44
2019-05-18T03:56:59.251Z,7.45
2019-05-18T03:57:59.232Z,7.45
2019-05-18T03:58:59.234Z,7.47
2019-05-18T03:59:59.251Z,7.47
2019-05-18T04:00:59.202Z,7.50
2019-05-18T04:01:59.213Z,7.49
2019-05-18T04:02:59.182Z,7.47
2019-05-18T04:03:59.172Z,7.49
2019-05-18T04:04:59.171Z,7.49
2019-05-18T04:06:00.429Z,7.49
2019-05-18T04:07:00.309Z,7.52
2019-05-18T04:07:59.749Z,7.52
2019-05-18T04:08:59.207Z,7.52
2019-05-18T04:09:59.107Z,7.53
2019-05-18T04:10:59.123Z,7.55
2019-05-18T04:11:59.092Z,7.56
2019-05-18T04:12:59.071Z,7.59
2019-05-18T04:13:59.117Z,7.62
2019-05-18T04:14:59.047Z,7.62
2019-05-18T04:15:59.053Z,7.63
2019-05-18T04:16:59.038Z,7.67
2019-05-18T04:17:59.022Z,7.69
2019-05-18T04:18:59.009Z,7.71
2019-05-18T04:19:59.901Z,7.72
2019-05-18T04:20:59.002Z,7.74
2019-05-18T04:21:59.000Z,7.72
2019-05-18T04:22:58.992Z,7.77
2019-05-18T04:23:58.951Z,7.81
2019-05-18T04:24:58.944Z,7.84
2019-05-18T04:25:58.950Z,7.85
2019-05-18T04:26:58.919Z,7.92
2019-05-18T04:27:58.921Z,7.93
2019-05-18T04:28:58.916Z,8.03
2019-05-18T04:29:58.892Z,8.11
2019-05-18T04:30:58.900Z,8.14
2019-05-18T04:31:58.918Z,8.18
2019-05-18T04:32:58.869Z,8.21
2019-05-18T04:33:58.850Z,8.22
2019-05-18T04:34:58.846Z,8.26
2019-05-18T04:35:58.826Z,8.28
2019-05-18T04:36:58.820Z,8.29
2019-05-18T04:37:58.840Z,8.33
2019-05-18T04:38:58.789Z,8.37
2019-05-18T04:40:00.462Z,8.42
2019-05-18T04:40:58.771Z,8.50
2019-05-18T04:41:58.769Z,8.62
2019-05-18T04:42:58.764Z,8.66
2019-05-18T04:43:58.752Z,8.62
2019-05-18T04:44:58.723Z,8.58
2019-05-18T04:45:58.714Z,8.58
2019-05-18T04:46:58.748Z,8.57
2019-05-18T04:47:58.717Z,8.58
2019-05-18T04:48:58.690Z,8.62
2019-05-18T04:50:05.045Z,8.63
2019-05-18T04:50:59.667Z,8.65
2019-05-18T04:51:58.839Z,8.68
2019-05-18T04:52:59.974Z,8.69
2019-05-18T04:53:59.159Z,8.66
2019-05-18T04:54:58.615Z,8.68
2019-05-18T04:55:58.602Z,8.68
2019-05-18T04:56:58.599Z,8.73
2019-05-18T04:57:58.597Z,8.75
2019-05-18T04:58:58.589Z,8.76
2019-05-18T04:59:58.570Z,8.83
2019-05-18T05:00:58.538Z,8.86
2019-05-18T05:02:00.472Z,8.90
2019-05-18T05:02:58.829Z,8.93
2019-05-18T05:03:58.528Z,8.94
2019-05-18T05:04:58.498Z,8.97
2019-05-18T05:05:58.488Z,9.01
2019-05-18T05:06:58.488Z,9.02
2019-05-18T05:07:58.466Z,9.05
2019-05-18T05:08:58.470Z,9.04
2019-05-18T05:09:58.445Z,9.06
2019-05-18T05:10:58.437Z,9.09
2019-05-18T05:11:58.426Z,9.10
2019-05-18T05:12:58.460Z,9.13
2019-05-18T05:13:58.617Z,9.12
2019-05-18T05:14:58.538Z,9.15
2019-05-18T05:15:59.056Z,9.20
2019-05-18T05:16:59.650Z,9.21
2019-05-18T05:18:00.670Z,9.25
2019-05-18T05:19:00.165Z,9.31
2019-05-18T05:19:59.475Z,9.38
2019-05-18T05:20:59.688Z,9.42
2019-05-18T05:21:59.099Z,9.46
2019-05-18T05:22:59.618Z,9.49
2019-05-18T05:23:58.319Z,9.53
2019-05-18T05:24:58.299Z,9.58
2019-05-18T05:25:58.725Z,9.63
2019-05-18T05:26:58.256Z,9.67
2019-05-18T05:27:58.258Z,9.68
2019-05-18T05:28:58.257Z,9.75
2019-05-18T05:29:58.225Z,9.79
2019-05-18T05:30:58.205Z,9.85
2019-05-18T05:31:58.218Z,9.93
2019-05-18T05:32:58.199Z,9.97
2019-05-18T05:33:58.200Z,10.03
2019-05-18T05:34:58.205Z,10.07
2019-05-18T05:35:58.164Z,10.10
2019-05-18T05:36:58.147Z,10.19
2019-05-18T05:37:58.135Z,10.25
2019-05-18T05:38:58.127Z,10.36
2019-05-18T05:39:58.129Z,10.40
2019-05-18T05:40:58.149Z,10.46
2019-05-18T05:41:58.102Z,10.52
2019-05-18T05:42:58.085Z,10.56
2019-05-18T05:43:58.075Z,10.62
2019-05-18T05:44:58.054Z,10.65
2019-05-18T05:45:58.054Z,10.68
2019-05-18T05:46:58.044Z,10.76
2019-05-18T05:47:58.034Z,10.78
2019-05-18T05:48:58.012Z,10.86
2019-05-18T05:49:58.014Z,10.91
2019-05-18T05:50:58.005Z,10.96
2019-05-18T05:51:57.987Z,11.01
2019-05-18T05:52:58.017Z,11.09
2019-05-18T05:53:58.046Z,11.13
2019-05-18T05:54:57.954Z,11.19
2019-05-18T05:55:57.947Z,11.28
2019-05-18T05:56:57.935Z,11.35
2019-05-18T05:57:57.915Z,11.38
2019-05-18T05:58:57.918Z,11.44
2019-05-18T05:59:57.893Z,11.52
2019-05-18T06:00:57.885Z,11.54
2019-05-18T06:01:57.919Z,11.61
2019-05-18T06:02:58.184Z,11.70
2019-05-18T06:03:57.857Z,11.75
2019-05-18T06:04:57.855Z,11.78
2019-05-18T06:05:57.823Z,11.85
2019-05-18T06:06:57.818Z,11.94
2019-05-18T06:07:57.826Z,12.01
2019-05-18T06:08:57.807Z,12.06
2019-05-18T06:09:57.784Z,12.11
2019-05-18T06:10:57.786Z,12.16
2019-05-18T06:11:57.807Z,12.24
2019-05-18T06:12:57.822Z,12.31
2019-05-18T06:13:57.797Z,12.38
2019-05-18T06:14:57.769Z,12.45
2019-05-18T06:15:57.722Z,12.51
2019-05-18T06:16:57.717Z,12.59
2019-05-18T06:17:57.747Z,12.63
2019-05-18T06:18:57.695Z,12.69
2019-05-18T06:19:57.686Z,12.77
2019-05-18T06:20:57.663Z,12.84
2019-05-18T06:21:57.654Z,12.93
2019-05-18T06:22:57.653Z,13.00
2019-05-18T06:23:57.632Z,13.09
2019-05-18T06:24:57.612Z,13.15
2019-05-18T06:25:57.647Z,13.20
2019-05-18T06:26:57.591Z,13.24
2019-05-18T06:27:57.622Z,13.29
2019-05-18T06:28:57.575Z,13.36
2019-05-18T06:29:57.572Z,13.37
2019-05-18T06:30:57.565Z,13.41
2019-05-18T06:31:57.591Z,13.46
2019-05-18T06:32:57.552Z,13.52
2019-05-18T06:33:57.523Z,13.56
2019-05-18T06:34:57.515Z,13.61
2019-05-18T06:35:57.501Z,13.65
2019-05-18T06:36:57.491Z,13.70
2019-05-18T06:37:57.492Z,13.73
2019-05-18T06:38:57.465Z,13.77
2019-05-18T06:39:57.451Z,13.81
2019-05-18T06:40:57.554Z,13.84
2019-05-18T06:41:57.771Z,13.88
2019-05-18T06:42:58.355Z,13.92
2019-05-18T06:43:58.539Z,13.94
2019-05-18T06:44:59.270Z,13.98
2019-05-18T06:45:57.450Z,14.02
2019-05-18T06:46:59.041Z,14.07
2019-05-18T06:47:57.646Z,14.10
2019-05-18T06:48:57.420Z,14.13
2019-05-18T06:49:57.353Z,14.14
2019-05-18T06:51:06.669Z,14.19
2019-05-18T06:51:58.321Z,14.24
2019-05-18T06:52:57.313Z,14.27
2019-05-18T06:53:57.300Z,14.32
2019-05-18T06:54:57.311Z,14.37
2019-05-18T06:55:57.281Z,14.42
2019-05-18T06:56:57.281Z,14.47
2019-05-18T06:57:57.260Z,14.52
2019-05-18T06:58:57.331Z,14.54
2019-05-18T06:59:57.243Z,14.61
2019-05-18T07:00:57.234Z,14.65
2019-05-18T07:01:57.219Z,14.69
2019-05-18T07:02:57.190Z,14.74
2019-05-18T07:03:57.180Z,14.81
2019-05-18T07:04:57.322Z,14.86
2019-05-18T07:05:57.170Z,14.93
2019-05-18T07:06:57.164Z,14.98
2019-05-18T07:07:57.140Z,15.02
2019-05-18T07:08:57.140Z,15.05
2019-05-18T07:09:57.141Z,15.09
2019-05-18T07:10:57.318Z,15.15
2019-05-18T07:11:57.115Z,15.20
2019-05-18T07:12:57.090Z,15.23
2019-05-18T07:13:57.093Z,15.28
2019-05-18T07:14:59.859Z,15.35
2019-05-18T07:15:57.060Z,15.41
2019-05-18T07:16:57.078Z,15.46
2019-05-18T07:17:57.301Z,15.52
2019-05-18T07:18:58.048Z,15.57
2019-05-18T07:19:58.169Z,15.64
2019-05-18T07:20:58.050Z,15.64
2019-05-18T07:21:58.871Z,15.72
2019-05-18T07:22:56.980Z,15.75
2019-05-18T07:23:56.970Z,15.78
2019-05-18T07:24:56.973Z,15.84
2019-05-18T07:25:56.951Z,15.89
2019-05-18T07:26:56.960Z,15.93
2019-05-18T07:27:56.920Z,15.99
2019-05-18T07:28:56.934Z,16.01
2019-05-18T07:29:56.928Z,16.04
2019-05-18T07:30:56.905Z,16.07
2019-05-18T07:31:56.891Z,16.11
2019-05-18T07:32:56.892Z,16.15
2019-05-18T07:33:56.860Z,16.25
2019-05-18T07:34:56.863Z,16.27
2019-05-18T07:35:56.840Z,16.34
2019-05-18T07:36:56.835Z,16.41
2019-05-18T07:37:56.810Z,16.45
2019-05-18T07:38:56.844Z,16.52
2019-05-18T07:39:56.804Z,16.59
2019-05-18T07:40:56.790Z,16.63
2019-05-18T07:41:56.785Z,16.68
2019-05-18T07:42:56.892Z,16.74
2019-05-18T07:43:56.907Z,16.77
2019-05-18T07:44:56.741Z,16.85
2019-05-18T07:45:56.749Z,16.90
2019-05-18T07:46:56.719Z,16.93
2019-05-18T07:47:56.706Z,16.99
2019-05-18T07:48:56.712Z,17.03
2019-05-18T07:49:56.680Z,17.08
2019-05-18T07:50:56.680Z,17.14
2019-05-18T07:51:56.672Z,17.18
2019-05-18T07:52:56.649Z,17.26
2019-05-18T07:53:56.638Z,17.35
2019-05-18T07:54:56.628Z,17.43
2019-05-18T07:55:56.659Z,17.46
2019-05-18T07:56:56.612Z,17.50
2019-05-18T07:57:56.589Z,17.54
2019-05-18T07:58:56.597Z,17.62
2019-05-18T07:59:56.568Z,17.67
2019-05-18T08:00:56.568Z,17.70
2019-05-18T08:01:56.559Z,17.74
2019-05-18T08:02:56.549Z,17.76
2019-05-18T08:03:56.543Z,17.81
2019-05-18T08:04:56.527Z,17.85
2019-05-18T08:05:56.509Z,17.87
2019-05-18T08:06:56.508Z,17.89
2019-05-18T08:07:56.492Z,17.92
2019-05-18T08:08:56.469Z,18.00
2019-05-18T08:09:56.650Z,18.03
2019-05-18T08:10:58.185Z,18.07
2019-05-18T08:11:56.459Z,18.10
2019-05-18T08:12:56.430Z,18.12
2019-05-18T08:13:56.429Z,18.19
2019-05-18T08:14:56.572Z,18.21
2019-05-18T08:15:56.670Z,18.22
2019-05-18T08:17:10.959Z,18.29
2019-05-18T08:17:56.689Z,18.36
2019-05-18T08:18:58.192Z,18.39
2019-05-18T08:19:57.319Z,18.43
2019-05-18T08:20:57.632Z,18.52
2019-05-18T08:21:57.553Z,18.54
2019-05-18T08:22:57.329Z,18.58
2019-05-18T08:23:57.528Z,18.65
2019-05-18T08:24:57.511Z,18.72
2019-05-18T08:25:58.180Z,18.80
2019-05-18T08:26:56.452Z,18.86
2019-05-18T08:27:57.278Z,18.95
2019-05-18T08:28:56.510Z,19.01
2019-05-18T08:29:56.277Z,19.10
2019-05-18T08:30:56.370Z,19.13
2019-05-18T08:31:57.600Z,19.23
2019-05-18T08:32:57.199Z,19.21
2019-05-18T08:33:56.511Z,19.18
2019-05-18T08:34:57.329Z,19.18
2019-05-18T08:35:57.219Z,19.21
2019-05-18T08:36:57.209Z,19.24
2019-05-18T08:37:56.899Z,19.25
2019-05-18T08:38:57.072Z,19.29
2019-05-18T08:39:56.952Z,19.29
2019-05-18T08:40:56.240Z,19.36
2019-05-18T08:41:56.424Z,19.43
2019-05-18T08:42:56.651Z,19.51
2019-05-18T08:43:57.071Z,19.54
2019-05-18T08:44:56.977Z,19.65
2019-05-18T08:45:56.450Z,19.72
2019-05-18T08:46:56.418Z,19.78
2019-05-18T08:47:56.238Z,19.83
2019-05-18T08:48:57.208Z,19.88
2019-05-18T08:49:57.289Z,19.93
2019-05-18T08:50:57.670Z,20.02
2019-05-18T08:52:07.987Z,20.03
2019-05-18T08:52:58.312Z,20.10
2019-05-18T08:53:55.980Z,20.20
2019-05-18T08:54:55.969Z,20.25
2019-05-18T08:55:55.983Z,20.28
2019-05-18T08:56:55.963Z,20.27
2019-05-18T08:57:55.940Z,20.30
2019-05-18T08:58:55.942Z,20.35
2019-05-18T08:59:55.919Z,20.41
2019-05-18T09:00:55.920Z,20.47
2019-05-18T09:01:55.890Z,20.50
2019-05-18T09:02:55.879Z,20.49
2019-05-18T09:03:55.883Z,20.46
2019-05-18T09:04:55.859Z,20.49
2019-05-18T09:05:55.859Z,20.53
2019-05-18T09:06:55.839Z,20.53
2019-05-18T09:07:55.834Z,20.49
2019-05-18T09:08:55.820Z,20.51
2019-05-18T09:09:55.819Z,20.50
2019-05-18T09:10:55.821Z,20.49
2019-05-18T09:11:55.793Z,20.47
2019-05-18T09:12:55.770Z,20.46
2019-05-18T09:13:55.760Z,20.42
2019-05-18T09:14:55.760Z,20.39
2019-05-18T09:15:55.740Z,20.43
2019-05-18T09:16:55.769Z,20.50
2019-05-18T09:17:55.718Z,20.54
2019-05-18T09:18:55.700Z,20.65
2019-05-18T09:19:55.714Z,20.72
2019-05-18T09:20:55.694Z,20.77
2019-05-18T09:21:55.680Z,20.84
2019-05-18T09:22:55.701Z,20.98
2019-05-18T09:23:55.660Z,21.08
2019-05-18T09:24:55.650Z,21.16
2019-05-18T09:25:55.649Z,21.23
2019-05-18T09:26:55.630Z,21.27
2019-05-18T09:27:55.614Z,21.36
2019-05-18T09:28:55.612Z,21.45
2019-05-18T09:29:55.581Z,21.53
2019-05-18T09:30:55.584Z,21.59
2019-05-18T09:31:55.570Z,21.64
2019-05-18T09:32:55.592Z,21.72
2019-05-18T09:33:55.540Z,21.78
2019-05-18T09:34:55.530Z,21.79
2019-05-18T09:35:55.520Z,21.78
2019-05-18T09:36:55.520Z,21.78
2019-05-18T09:37:55.502Z,21.85
2019-05-18T09:38:55.492Z,21.91
2019-05-18T09:39:55.484Z,21.85
2019-05-18T09:40:55.471Z,21.88
2019-05-18T09:41:55.479Z,21.90
2019-05-18T09:42:55.450Z,21.91
2019-05-18T09:43:55.451Z,21.90
2019-05-18T09:44:55.440Z,21.79
2019-05-18T09:45:55.411Z,21.75
2019-05-18T09:46:55.465Z,21.75
2019-05-18T09:47:55.403Z,21.74
2019-05-18T09:48:55.392Z,21.74
2019-05-18T09:49:55.371Z,21.64
2019-05-18T09:50:55.371Z,21.60
2019-05-18T09:51:55.350Z,21.56
2019-05-18T09:52:55.351Z,21.54
2019-05-18T09:53:55.331Z,21.54
2019-05-18T09:54:55.336Z,21.53
2019-05-18T09:55:55.309Z,21.59
2019-05-18T09:56:55.301Z,21.60
2019-05-18T09:57:55.291Z,21.59
2019-05-18T09:58:55.281Z,21.60
2019-05-18T09:59:55.260Z,21.56
2019-05-18T10:00:55.261Z,21.51
2019-05-18T10:01:55.241Z,21.53
2019-05-18T10:02:55.231Z,21.57
2019-05-18T10:03:55.245Z,21.64
2019-05-18T10:04:55.211Z,21.72
2019-05-18T10:05:55.193Z,21.74
2019-05-18T10:06:55.216Z,21.79
2019-05-18T10:07:55.171Z,21.75
2019-05-18T10:08:55.201Z,21.64
2019-05-18T10:09:55.164Z,21.64
2019-05-18T10:10:55.143Z,21.67
2019-05-18T10:11:55.163Z,21.75
2019-05-18T10:12:55.122Z,21.90
2019-05-18T10:13:55.102Z,21.98
2019-05-18T10:14:55.124Z,22.07
2019-05-18T10:15:55.092Z,22.13
2019-05-18T10:16:55.081Z,22.16
2019-05-18T10:17:55.085Z,22.14
2019-05-18T10:18:55.084Z,22.25
2019-05-18T10:19:55.053Z,22.39
2019-05-18T10:20:55.049Z,22.38
2019-05-18T10:21:55.022Z,22.41
2019-05-18T10:23:11.350Z,22.47
2019-05-18T10:23:56.044Z,22.44
2019-05-18T10:24:54.983Z,22.43
2019-05-18T10:25:54.994Z,22.44
2019-05-18T10:26:54.972Z,22.43
2019-05-18T10:27:54.951Z,22.44
2019-05-18T10:28:54.954Z,22.46
2019-05-18T10:29:54.946Z,22.49
2019-05-18T10:30:54.922Z,22.54
2019-05-18T10:31:54.912Z,22.59
2019-05-18T10:32:54.907Z,22.64
2019-05-18T10:33:54.913Z,22.56
2019-05-18T10:34:54.906Z,22.53
2019-05-18T10:35:54.871Z,22.49
2019-05-18T10:36:54.861Z,22.52
2019-05-18T10:37:54.865Z,22.49
2019-05-18T10:38:54.833Z,22.43
2019-05-18T10:39:54.832Z,22.25
2019-05-18T10:40:54.820Z,22.20
2019-05-18T10:41:54.835Z,22.17
2019-05-18T10:42:54.805Z,22.16
2019-05-18T10:43:54.783Z,22.13
2019-05-18T10:44:54.783Z,22.09
2019-05-18T10:45:54.774Z,22.06
2019-05-18T10:46:54.773Z,21.94
2019-05-18T10:47:54.734Z,21.83
2019-05-18T10:48:54.725Z,21.82
2019-05-18T10:49:54.715Z,21.82
2019-05-18T10:50:54.703Z,21.85
2019-05-18T10:51:54.717Z,21.88
2019-05-18T10:52:54.683Z,21.88
2019-05-18T10:53:54.684Z,21.95
2019-05-18T10:54:54.676Z,21.99
2019-05-18T10:55:55.155Z,22.02
2019-05-18T10:56:54.654Z,22.07
2019-05-18T10:57:54.633Z,22.14
2019-05-18T10:58:54.623Z,22.22
2019-05-18T10:59:54.614Z,22.29
2019-05-18T11:00:54.614Z,22.38
2019-05-18T11:01:54.600Z,22.47
2019-05-18T11:02:54.586Z,22.57
2019-05-18T11:03:54.563Z,22.64
2019-05-18T11:04:54.553Z,22.68
2019-05-18T11:05:54.553Z,22.78
2019-05-18T11:06:54.534Z,22.86
2019-05-18T11:07:54.541Z,22.94
2019-05-18T11:08:54.563Z,23.04
2019-05-18T11:09:54.505Z,23.11
2019-05-18T11:10:54.505Z,23.17
2019-05-18T11:11:54.476Z,23.19
2019-05-18T11:12:54.484Z,23.31
2019-05-18T11:13:54.467Z,23.42
2019-05-18T11:14:54.457Z,23.53
2019-05-18T11:15:54.448Z,23.52
2019-05-18T11:16:54.424Z,23.57
2019-05-18T11:17:54.424Z,23.53
2019-05-18T11:18:54.425Z,23.49
2019-05-18T11:19:54.394Z,23.45
2019-05-18T11:20:54.375Z,23.43
2019-05-18T11:21:54.367Z,23.47
2019-05-18T11:22:54.365Z,23.58
2019-05-18T11:23:54.356Z,23.64
2019-05-18T11:24:54.335Z,23.77
2019-05-18T11:25:54.347Z,23.76
2019-05-18T11:26:54.326Z,23.80
2019-05-18T11:27:54.315Z,23.94
2019-05-18T11:28:54.294Z,24.12
2019-05-18T11:29:54.285Z,24.20
2019-05-18T11:30:54.264Z,24.34
2019-05-18T11:31:54.256Z,24.38
2019-05-18T11:32:54.271Z,24.34
2019-05-18T11:33:54.246Z,24.32
2019-05-18T11:34:54.250Z,24.39
2019-05-18T11:35:54.216Z,24.44
2019-05-18T11:36:54.218Z,24.53
2019-05-18T11:37:54.229Z,24.50
2019-05-18T11:38:54.195Z,24.47
2019-05-18T11:39:54.166Z,24.42
2019-05-18T11:40:54.166Z,24.38
2019-05-18T11:41:54.146Z,24.27
2019-05-18T11:42:54.136Z,24.10
2019-05-18T11:43:54.148Z,24.08
2019-05-18T11:44:54.138Z,24.00
2019-05-18T11:45:54.119Z,23.90
2019-05-18T11:46:54.096Z,23.89
2019-05-18T11:47:54.085Z,23.86
2019-05-18T11:48:54.086Z,23.83
2019-05-18T11:49:54.095Z,23.85
2019-05-18T11:50:54.049Z,23.87
2019-05-18T11:51:54.047Z,23.87
2019-05-18T11:52:54.036Z,23.76
2019-05-18T11:53:58.332Z,23.65
2019-05-18T11:54:54.017Z,23.61
2019-05-18T11:55:54.001Z,23.60
2019-05-18T11:56:53.998Z,23.60
2019-05-18T11:57:53.974Z,23.67
2019-05-18T11:58:53.976Z,23.71
2019-05-18T11:59:53.979Z,23.70
2019-05-18T12:00:53.961Z,23.55
2019-05-18T12:01:53.937Z,23.49
2019-05-18T12:02:53.929Z,23.52
2019-05-18T12:03:53.918Z,23.60
2019-05-18T12:04:53.907Z,23.61
2019-05-18T12:05:53.897Z,23.67
2019-05-18T12:06:53.891Z,23.75
2019-05-18T12:07:53.869Z,23.67
2019-05-18T12:08:53.872Z,23.57
2019-05-18T12:09:53.849Z,23.47
2019-05-18T12:10:56.181Z,23.50
2019-05-18T12:11:53.828Z,23.57
2019-05-18T12:12:53.819Z,23.65
2019-05-18T12:13:53.810Z,23.67
2019-05-18T12:14:53.798Z,23.72
2019-05-18T12:15:53.788Z,23.75
2019-05-18T12:16:53.781Z,23.77
2019-05-18T12:17:53.771Z,23.87
2019-05-18T12:18:57.294Z,23.97
2019-05-18T12:19:53.799Z,24.02
2019-05-18T12:20:53.749Z,24.02
2019-05-18T12:21:53.718Z,24.04
2019-05-18T12:22:53.925Z,24.07
2019-05-18T12:23:53.690Z,24.14
2019-05-18T12:24:53.702Z,24.23
2019-05-18T12:25:53.670Z,24.22
2019-05-18T12:26:53.687Z,24.23
2019-05-18T12:27:53.666Z,24.05
2019-05-18T12:28:53.652Z,23.97
2019-05-18T12:29:53.629Z,24.02
2019-05-18T12:30:53.640Z,24.07
2019-05-18T12:31:53.663Z,24.10
2019-05-18T12:32:53.604Z,24.14
2019-05-18T12:33:53.583Z,24.19
2019-05-18T12:34:53.579Z,24.24
2019-05-18T12:35:53.579Z,24.26
2019-05-18T12:36:53.551Z,24.34
2019-05-18T12:37:53.543Z,24.34
2019-05-18T12:38:53.530Z,24.35
2019-05-18T12:39:53.529Z,24.41
2019-05-18T12:40:53.511Z,24.47
2019-05-18T12:41:53.520Z,24.59
2019-05-18T12:42:53.494Z,24.56
2019-05-18T12:43:53.480Z,24.42
2019-05-18T12:44:53.460Z,24.35
2019-05-18T12:45:53.450Z,24.31
2019-05-18T12:46:53.488Z,24.20
2019-05-18T12:47:53.440Z,24.20
2019-05-18T12:48:53.441Z,24.16
2019-05-18T12:49:53.419Z,24.14
2019-05-18T12:50:53.402Z,24.07
2019-05-18T12:51:53.451Z,24.00
2019-05-18T12:52:53.397Z,23.94
2019-05-18T12:53:53.371Z,23.83
2019-05-18T12:54:53.351Z,23.65
2019-05-18T12:55:53.349Z,23.50
2019-05-18T12:56:53.339Z,23.49
2019-05-18T12:57:53.343Z,23.42
2019-05-18T12:58:53.311Z,23.31
2019-05-18T12:59:53.304Z,23.22
2019-05-18T13:00:53.296Z,23.22
2019-05-18T13:01:53.282Z,23.17
2019-05-18T13:02:53.268Z,23.19